Time;durP1;ratioP1;P1;durP2;ratioP2;P2;SDS_P1;SDS_P2;PMS_P1;PMS_P2;Temp;Humidity;BMP_temperature;BMP_pressure;BME280_temperature;BME280_humidity;BME280_pressure;Samples;Min_cycle;Max_cycle;Signal;HPM_P1;HPM_P2
2022/05/27 00:00:46;;;;;;;;;;;;;;;19.79;96.11;98413.13;5082085;28;20059;-61
2022/05/27 00:03:13;;;;;;;;;;;;;;;19.86;95.77;98399.94;5081453;28;19931;-61
2022/05/27 00:05:39;;;;;;;;;;;;;;;19.80;96.24;98402.00;5078841;28;19921;-61
2022/05/27 00:08:06;;;;;;;;;;;;;;;19.79;96.25;98405.00;5077598;28;20478;-60
2022/05/27 00:10:33;;;;;;;;;;;;;;;19.80;96.21;98403.91;5081758;28;19989;-60
2022/05/27 00:13:00;;;;;;;;;;;;;;;19.82;96.04;98402.47;5081852;28;19925;-60
2022/05/27 00:15:28;;;;;;;;;;;;;;;19.84;95.97;98394.81;5079322;28;19936;-61
2022/05/27 00:17:54;;;;;;;;;;;;;;;19.82;96.17;98398.97;5078283;28;19928;-60
2022/05/27 00:20:21;;;;;;;;;;;;;;;19.81;96.40;98391.94;5079910;28;19927;-61
2022/05/27 00:22:47;;;;;;;;;;;;;;;19.77;96.87;98394.50;5081851;28;19924;-60
2022/05/27 00:25:14;;;;;;;;;;;;;;;19.75;97.00;98399.41;5079863;28;19987;-60
2022/05/27 00:27:40;;;;;;;;;;;;;;;19.70;97.67;98385.19;5078143;28;19925;-60
2022/05/27 00:30:08;;;;;;;;;;;;;;;19.71;97.59;98389.50;5078465;28;19931;-61
2022/05/27 00:32:36;;;;;;;;;;;;;;;19.72;97.73;98393.78;5070290;28;19952;-61
2022/05/27 00:35:03;;;;;;;;;;;;;;;19.69;98.00;98389.00;5078407;28;19959;-61
2022/05/27 00:37:29;;;;;;;;;;;;;;;19.68;98.14;98382.00;5080102;28;19971;-61
2022/05/27 00:39:56;;;;;;;;;;;;;;;19.65;98.46;98377.19;5081924;28;19928;-61
2022/05/27 00:42:22;;;;;;;;;;;;;;;19.64;98.68;98381.00;5078440;28;20456;-61
2022/05/27 00:44:48;;;;;;;;;;;;;;;19.62;98.76;98377.81;5081720;28;19992;-60
2022/05/27 00:47:17;;;;;;;;;;;;;;;19.66;98.46;98374.16;5080387;28;19999;-60
2022/05/27 00:49:47;;;;;;;;;;;;;;;19.64;98.79;98372.88;5078171;28;19988;-60
2022/05/27 00:52:14;;;;;;;;;;;;;;;19.59;99.07;98370.31;5078280;28;19932;-60
2022/05/27 00:54:41;;;;;;;;;;;;;;;19.61;99.01;98373.50;5081325;28;20016;-60
2022/05/27 00:57:10;;;;;;;;;;;;;;;19.60;99.16;98364.56;5081023;28;19975;-60
2022/05/27 00:59:39;;;;;;;;;;;;;;;19.60;99.18;98369.19;5070019;28;19952;-60
2022/05/27 01:02:05;;;;;;;;;;;;;;;19.61;99.17;98362.66;5076739;28;19943;-60
2022/05/27 01:04:33;;;;;;;;;;;;;;;19.61;98.77;98371.59;5080967;28;20012;-60
2022/05/27 01:07:01;;;;;;;;;;;;;;;19.48;99.30;98368.97;5080998;28;19928;-60
2022/05/27 01:09:28;;;;;;;;;;;;;;;19.47;100.00;98362.72;5078388;28;19924;-60
2022/05/27 01:12:04;;;;;;;;;;;;;;;19.50;100.00;98361.31;5077591;28;19935;-60
2022/05/27 01:14:40;;;;;;;;;;;;;;;19.51;100.00;98357.50;5080926;28;19932;-60
2022/05/27 01:17:10;;;;;;;;;;;;;;;19.49;100.00;98357.03;5081313;28;19991;-60
2022/05/27 01:22:47;;;;;;;;;;;;;;;19.49;100.00;98357.03;5070815;28;19935;-60
2022/05/27 01:25:32;;;;;;;;;;;;;;;19.52;100.00;98356.41;5078014;28;19928;-60
2022/05/27 01:28:12;;;;;;;;;;;;;;;19.47;100.00;98353.81;5080967;28;20098;-60
2022/05/27 01:30:43;;;;;;;;;;;;;;;19.46;100.00;98349.50;5070122;28;19925;-61
2022/05/27 01:33:14;;;;;;;;;;;;;;;19.41;100.00;98358.56;5077569;28;19956;-61
2022/05/27 01:35:43;;;;;;;;;;;;;;;19.44;100.00;98349.00;5080722;28;19924;-61
2022/05/27 01:38:13;;;;;;;;;;;;;;;19.40;100.00;98341.50;5080487;28;19976;-61
2022/05/27 01:40:45;;;;;;;;;;;;;;;19.45;100.00;98347.91;5080465;28;19996;-61
2022/05/27 01:43:16;;;;;;;;;;;;;;;19.44;100.00;98343.59;5086090;28;20391;-61
2022/05/27 01:45:48;;;;;;;;;;;;;;;19.43;100.00;98352.84;5081177;28;19995;-61
2022/05/27 01:48:18;;;;;;;;;;;;;;;19.40;100.00;98340.72;5081688;28;20007;-61
2022/05/27 01:50:50;;;;;;;;;;;;;;;19.29;100.00;98340.13;5084591;28;19963;-61
2022/05/27 01:53:19;;;;;;;;;;;;;;;19.14;100.00;98345.94;5083571;28;19930;-61
2022/05/27 01:55:50;;;;;;;;;;;;;;;19.05;100.00;98331.53;5081162;28;19925;-61
2022/05/27 01:58:20;;;;;;;;;;;;;;;19.18;100.00;98335.28;5082045;28;19932;-61
2022/05/27 02:00:49;;;;;;;;;;;;;;;19.24;100.00;98325.94;5083428;28;19979;-61
2022/05/27 02:03:19;;;;;;;;;;;;;;;19.27;100.00;98328.81;5083194;28;19966;-61
2022/05/27 02:05:48;;;;;;;;;;;;;;;19.27;100.00;98328.00;5081022;28;20719;-60
2022/05/27 02:08:17;;;;;;;;;;;;;;;19.07;100.00;98325.78;5081631;28;19924;-61
2022/05/27 02:10:48;;;;;;;;;;;;;;;19.00;100.00;98331.63;5084553;28;19936;-61
2022/05/27 02:13:17;;;;;;;;;;;;;;;19.08;100.00;98333.63;5083460;28;19948;-60
2022/05/27 02:15:45;;;;;;;;;;;;;;;19.14;100.00;98332.38;5081006;28;19924;-60
2022/05/27 02:18:20;;;;;;;;;;;;;;;19.15;100.00;98336.72;5081142;28;19967;-61
2022/05/27 02:20:50;;;;;;;;;;;;;;;19.22;100.00;98325.41;5084393;28;19970;-61
2022/05/27 02:23:19;;;;;;;;;;;;;;;19.26;100.00;98323.69;5082806;28;20553;-61
2022/05/27 02:25:47;;;;;;;;;;;;;;;19.24;100.00;98321.31;5079778;28;20576;-60
2022/05/27 02:28:16;;;;;;;;;;;;;;;19.22;100.00;98320.81;5081364;28;19932;-61
2022/05/27 02:30:43;;;;;;;;;;;;;;;19.19;100.00;98317.91;5084285;28;20370;-61
2022/05/27 02:36:00;;;;;;;;;;;;;;;19.15;100.00;98323.16;5080520;28;19956;-61
2022/05/27 02:38:27;;;;;;;;;;;;;;;19.14;100.00;98318.84;5082787;28;19953;-61
2022/05/27 02:40:57;;;;;;;;;;;;;;;19.01;100.00;98316.19;5083767;28;19988;-61
2022/05/27 02:43:27;;;;;;;;;;;;;;;18.95;100.00;98318.22;5081401;28;19925;-59
2022/05/27 02:45:59;;;;;;;;;;;;;;;18.99;100.00;98316.53;5080000;28;19931;-59
2022/05/27 02:48:31;;;;;;;;;;;;;;;19.04;100.00;98308.25;5082381;28;19936;-59
2022/05/27 02:51:04;;;;;;;;;;;;;;;19.06;100.00;98319.59;5082936;28;19991;-60
2022/05/27 02:53:34;;;;;;;;;;;;;;;19.11;100.00;98310.53;5080115;28;19925;-60
2022/05/27 02:56:04;;;;;;;;;;;;;;;19.09;100.00;98307.34;5079598;28;19925;-60
2022/05/27 02:58:31;;;;;;;;;;;;;;;19.13;100.00;98311.03;5082743;28;19962;-60
2022/05/27 03:00:57;;;;;;;;;;;;;;;19.12;100.00;98312.16;5081953;28;19984;-60
2022/05/27 03:03:24;;;;;;;;;;;;;;;19.10;100.00;98306.22;5080894;28;19924;-60
2022/05/27 03:05:56;;;;;;;;;;;;;;;19.09;100.00;98316.28;5079598;28;19928;-60
2022/05/27 03:08:26;;;;;;;;;;;;;;;18.94;100.00;98315.84;5081363;28;19932;-60
2022/05/27 03:11:02;;;;;;;;;;;;;;;18.81;100.00;98312.88;5082820;28;19931;-60
2022/05/27 03:13:46;;;;;;;;;;;;;;;18.70;100.00;98318.81;5080033;28;20270;-60
2022/05/27 03:16:18;;;;;;;;;;;;;;;18.38;100.00;98313.56;5079989;28;19925;-60
2022/05/27 03:18:54;;;;;;;;;;;;;;;18.51;100.00;98318.16;5083082;28;19996;-60
2022/05/27 03:21:25;;;;;;;;;;;;;;;18.64;100.00;98312.72;5081233;28;19962;-60
2022/05/27 03:24:02;;;;;;;;;;;;;;;18.58;100.00;98316.66;5079395;28;19996;-60
2022/05/27 03:26:32;;;;;;;;;;;;;;;18.33;100.00;98317.97;5082061;28;19992;-60
2022/05/27 03:29:04;;;;;;;;;;;;;;;18.27;100.00;98313.78;5082754;28;19956;-60
2022/05/27 03:31:32;;;;;;;;;;;;;;;18.51;100.00;98312.75;5079405;28;19925;-60
2022/05/27 03:34:06;;;;;;;;;;;;;;;18.71;100.00;98317.72;5079299;28;19987;-60
2022/05/27 03:36:36;;;;;;;;;;;;;;;18.57;100.00;98319.69;5082352;28;19925;-60
2022/05/27 03:39:08;;;;;;;;;;;;;;;18.47;100.00;98314.47;5082541;28;20000;-60
2022/05/27 03:41:37;;;;;;;;;;;;;;;18.57;100.00;98314.28;5070770;28;19936;-58
2022/05/27 03:44:05;;;;;;;;;;;;;;;18.74;100.00;98309.78;5079010;28;19980;-60
2022/05/27 03:46:32;;;;;;;;;;;;;;;18.77;100.00;98302.97;5082041;28;19959;-60
2022/05/27 03:48:58;;;;;;;;;;;;;;;18.73;100.00;98316.31;5082450;28;19983;-60
2022/05/27 03:51:32;;;;;;;;;;;;;;;18.54;100.00;98317.56;5080083;28;19954;-60
2022/05/27 03:54:04;;;;;;;;;;;;;;;18.63;100.00;98318.47;5078924;28;19951;-60
2022/05/27 03:56:33;;;;;;;;;;;;;;;18.73;100.00;98310.91;5081706;28;19950;-60
2022/05/27 03:59:02;;;;;;;;;;;;;;;18.83;100.00;98304.44;5082361;28;19931;-60
2022/05/27 04:01:30;;;;;;;;;;;;;;;18.84;100.00;98300.66;5078798;28;19924;-60
2022/05/27 04:03:57;;;;;;;;;;;;;;;18.58;100.00;98311.25;5078842;28;19920;-60
2022/05/27 04:06:24;;;;;;;;;;;;;;;18.54;100.00;98304.03;5080627;28;19933;-60
2022/05/27 04:08:50;;;;;;;;;;;;;;;18.59;100.00;98310.16;5082135;28;19920;-60
2022/05/27 04:11:16;;;;;;;;;;;;;;;18.40;100.00;98314.06;5081012;28;19960;-60
2022/05/27 04:13:44;;;;;;;;;;;;;;;18.48;100.00;98316.84;5078302;28;19924;-60
2022/05/27 04:16:11;;;;;;;;;;;;;;;18.61;100.00;98304.41;5078612;28;20603;-60
2022/05/27 04:18:37;;;;;;;;;;;;;;;18.73;100.00;98308.19;5081712;28;19928;-60
2022/05/27 04:21:03;;;;;;;;;;;;;;;18.80;100.00;98318.59;5082048;28;19924;-61
2022/05/27 04:23:30;;;;;;;;;;;;;;;18.68;100.00;98321.03;5078787;28;20716;-61
2022/05/27 04:25:56;;;;;;;;;;;;;;;18.43;100.00;98335.91;5078141;28;19952;-61
2022/05/27 04:28:23;;;;;;;;;;;;;;;18.09;100.00;98330.13;5095790;28;19989;-61
2022/05/27 04:30:50;;;;;;;;;;;;;;;17.87;100.00;98332.72;5081602;28;19960;-60
2022/05/27 04:33:17;;;;;;;;;;;;;;;18.09;100.00;98325.53;5080389;28;19969;-60
2022/05/27 04:35:43;;;;;;;;;;;;;;;18.33;100.00;98326.09;5078444;28;19980;-60
2022/05/27 04:38:09;;;;;;;;;;;;;;;18.52;100.00;98317.88;5078189;28;19964;-60
2022/05/27 04:40:36;;;;;;;;;;;;;;;18.64;100.00;98318.13;5081867;28;19926;-60
2022/05/27 04:43:03;;;;;;;;;;;;;;;18.74;100.00;98314.41;5081898;28;20459;-60
2022/05/27 04:45:29;;;;;;;;;;;;;;;18.84;100.00;98314.97;5078239;28;20531;-60
2022/05/27 04:47:57;;;;;;;;;;;;;;;18.62;100.00;98316.84;5078583;28;19955;-60
2022/05/27 04:50:27;;;;;;;;;;;;;;;18.66;100.00;98315.91;5080392;28;19924;-60
2022/05/27 04:52:53;;;;;;;;;;;;;;;18.58;100.00;98326.66;5081750;28;19924;-60
2022/05/27 04:55:22;;;;;;;;;;;;;;;18.66;100.00;98317.84;5079944;28;20023;-60
2022/05/27 04:57:51;;;;;;;;;;;;;;;18.64;100.00;98318.13;5078196;28;19925;-60
2022/05/27 05:00:18;;;;;;;;;;;;;;;18.44;100.00;98310.47;5079545;28;19936;-60
2022/05/27 05:02:44;;;;;;;;;;;;;;;18.35;100.00;98293.34;5081662;28;19931;-59
2022/05/27 05:05:14;;;;;;;;;;;;;;;18.14;100.00;98303.78;5081314;28;19964;-60
2022/05/27 05:07:41;;;;;;;;;;;;;;;18.44;100.00;98298.84;5077848;28;19925;-60
2022/05/27 05:10:08;;;;;;;;;;;;;;;18.53;100.00;98302.44;5078071;28;19931;-60
2022/05/27 05:12:34;;;;;;;;;;;;;;;18.02;100.00;98303.50;5070054;28;19992;-60
2022/05/27 05:15:01;;;;;;;;;;;;;;;17.99;100.00;98304.09;5085267;28;20019;-60
2022/05/27 05:17:27;;;;;;;;;;;;;;;18.13;100.00;98304.91;5082788;28;19987;-60
2022/05/27 05:19:55;;;;;;;;;;;;;;;18.27;100.00;98294.84;5081823;28;19924;-60
2022/05/27 05:22:23;;;;;;;;;;;;;;;18.31;100.00;98300.47;5083080;28;19924;-60
2022/05/27 05:24:51;;;;;;;;;;;;;;;18.29;100.00;98298.06;5084951;28;19988;-60
2022/05/27 05:27:17;;;;;;;;;;;;;;;18.51;100.00;98293.81;5083470;28;19998;-61
2022/05/27 05:29:43;;;;;;;;;;;;;;;18.51;100.00;98293.81;5081658;28;19932;-61
2022/05/27 05:32:10;;;;;;;;;;;;;;;18.48;100.00;98305.22;5081823;28;19952;-61
2022/05/27 05:34:36;;;;;;;;;;;;;;;18.74;100.00;98309.78;5085146;28;19924;-61
2022/05/27 05:37:03;;;;;;;;;;;;;;;18.70;100.00;98308.00;5084969;28;19963;-61
2022/05/27 05:39:30;;;;;;;;;;;;;;;18.54;100.00;98304.84;5082164;28;19929;-61
2022/05/27 05:41:58;;;;;;;;;;;;;;;18.61;100.00;98307.13;5097028;28;19971;-61
2022/05/27 05:44:26;;;;;;;;;;;;;;;19.09;100.00;98300.03;5083501;28;19975;-59
2022/05/27 05:46:53;;;;;;;;;;;;;;;19.25;100.00;98293.09;5084782;28;19925;-62
2022/05/27 05:49:19;;;;;;;;;;;;;;;19.33;100.00;98295.09;5083570;28;19996;-60
2022/05/27 05:51:46;;;;;;;;;;;;;;;19.31;100.00;98296.50;5081021;28;19928;-60
2022/05/27 05:54:12;;;;;;;;;;;;;;;19.36;100.00;98301.78;5081319;28;19956;-60
2022/05/27 05:56:40;;;;;;;;;;;;;;;19.59;100.00;98302.59;5084607;28;19960;-61
2022/05/27 05:59:06;;;;;;;;;;;;;;;19.58;100.00;98296.34;5084976;28;19967;-61
2022/05/27 06:01:32;;;;;;;;;;;;;;;19.47;100.00;98299.63;5081341;28;19932;-61
2022/05/27 06:03:59;;;;;;;;;;;;;;;19.15;100.00;98295.28;5081412;28;19963;-60
2022/05/27 06:06:25;;;;;;;;;;;;;;;19.37;100.00;98300.69;5083380;28;19967;-60
2022/05/27 06:08:51;;;;;;;;;;;;;;;19.08;100.00;98293.00;5084371;28;19983;-60
2022/05/27 06:11:18;;;;;;;;;;;;;;;19.14;100.00;98297.19;5083192;28;19924;-60
2022/05/27 06:13:47;;;;;;;;;;;;;;;19.28;100.00;98294.41;5081195;28;20081;-61
2022/05/27 06:16:13;;;;;;;;;;;;;;;19.18;100.00;98290.06;5081373;28;19924;-60
2022/05/27 06:18:43;;;;;;;;;;;;;;;19.11;100.00;98291.59;5084231;28;19952;-60
2022/05/27 06:21:10;;;;;;;;;;;;;;;19.15;100.00;98287.16;5083979;28;19935;-60
2022/05/27 06:23:36;;;;;;;;;;;;;;;19.20;100.00;98285.13;5080353;28;19963;-60
2022/05/27 06:26:04;;;;;;;;;;;;;;;19.34;100.00;98277.69;5079846;28;19977;-60
2022/05/27 06:36:44;;;;;;;;;;;;;;;19.58;100.00;98284.72;5073389;28;19929;-60
2022/05/27 06:39:11;;;;;;;;;;;;;;;19.42;100.00;98275.41;5080495;28;19952;-60
2022/05/27 06:41:38;;;;;;;;;;;;;;;19.48;100.00;98279.56;5083434;28;19924;-60
2022/05/27 06:44:04;;;;;;;;;;;;;;;19.45;100.00;98278.28;5080573;28;19967;-60
2022/05/27 06:46:32;;;;;;;;;;;;;;;19.18;100.00;98281.94;5082567;28;19924;-60
2022/05/27 06:48:59;;;;;;;;;;;;;;;19.39;100.00;98282.19;5083442;28;19960;-60
2022/05/27 06:51:25;;;;;;;;;;;;;;;19.35;100.00;98287.44;5080978;28;19989;-61
2022/05/27 06:53:52;;;;;;;;;;;;;;;19.45;100.00;98291.81;5079705;28;19931;-60
2022/05/27 06:56:18;;;;;;;;;;;;;;;19.51;100.00;98285.16;5080619;28;19992;-60
2022/05/27 06:58:45;;;;;;;;;;;;;;;19.26;100.00;98288.50;5083020;28;19963;-60
2022/05/27 07:01:12;;;;;;;;;;;;;;;19.37;100.00;98292.56;5082411;28;19952;-60
2022/05/27 07:03:40;;;;;;;;;;;;;;;19.02;100.00;98283.41;5079253;28;19986;-60
2022/05/27 07:06:07;;;;;;;;;;;;;;;19.19;100.00;98283.50;5079382;28;19947;-60
2022/05/27 07:08:34;;;;;;;;;;;;;;;19.27;100.00;98280.06;5082875;28;19992;-61
2022/05/27 07:11:00;;;;;;;;;;;;;;;19.09;100.00;98283.78;5082916;28;19925;-61
2022/05/27 07:13:27;;;;;;;;;;;;;;;19.32;100.00;98287.25;5080122;28;19984;-61
2022/05/27 07:15:53;;;;;;;;;;;;;;;19.39;100.00;98283.03;5079385;28;19956;-61
2022/05/27 07:18:20;;;;;;;;;;;;;;;19.52;100.00;98284.06;5080525;28;20005;-61
2022/05/27 07:20:47;;;;;;;;;;;;;;;19.23;100.00;98284.50;5082526;28;19920;-61
2022/05/27 07:23:17;;;;;;;;;;;;;;;19.29;100.00;98279.75;5081970;28;19980;-61
2022/05/27 07:25:44;;;;;;;;;;;;;;;19.42;100.00;98287.03;5077833;28;19927;-61
2022/05/27 07:28:12;;;;;;;;;;;;;;;19.28;100.00;98287.06;5079231;28;19921;-60
2022/05/27 07:30:39;;;;;;;;;;;;;;;19.34;100.00;98285.06;5082592;28;19944;-60
2022/05/27 07:33:06;;;;;;;;;;;;;;;19.03;100.00;98276.91;5082593;28;19962;-60
2022/05/27 07:35:32;;;;;;;;;;;;;;;19.12;100.00;98285.88;5077765;28;19924;-60
2022/05/27 07:38:00;;;;;;;;;;;;;;;19.17;100.00;98285.75;5077845;28;19992;-60
2022/05/27 07:40:26;;;;;;;;;;;;;;;19.18;100.00;98273.00;5080907;28;20320;-60
2022/05/27 07:42:53;;;;;;;;;;;;;;;19.32;100.00;98279.94;5082098;28;19920;-60
2022/05/27 07:45:26;;;;;;;;;;;;;;;18.96;100.00;98281.13;5080881;28;19932;-61
2022/05/27 07:47:52;;;;;;;;;;;;;;;19.15;100.00;98284.47;5079084;28;19978;-61
2022/05/27 07:50:20;;;;;;;;;;;;;;;19.14;100.00;98289.06;5080224;28;19967;-61
2022/05/27 07:52:46;;;;;;;;;;;;;;;19.08;100.00;98287.59;5082370;28;19921;-61
2022/05/27 07:55:14;;;;;;;;;;;;;;;19.10;100.00;98285.38;5081800;28;19963;-61
2022/05/27 07:57:41;;;;;;;;;;;;;;;19.17;100.00;98279.53;5079041;28;20115;-61
2022/05/27 08:00:11;;;;;;;;;;;;;;;19.21;100.00;98286.72;5078901;28;19947;-60
2022/05/27 08:02:37;;;;;;;;;;;;;;;19.17;100.00;98287.66;5070899;28;19971;-60
2022/05/27 08:05:04;;;;;;;;;;;;;;;19.23;100.00;98292.63;5078826;28;19964;-60
2022/05/27 08:07:32;;;;;;;;;;;;;;;19.17;100.00;98290.34;5081579;28;19959;-60
2022/05/27 08:09:58;;;;;;;;;;;;;;;19.22;100.00;98280.19;5082027;28;19939;-61
2022/05/27 08:12:26;;;;;;;;;;;;;;;19.17;100.00;98280.31;5078259;28;19925;-61
2022/05/27 08:14:52;;;;;;;;;;;;;;;19.07;100.00;98274.34;5082116;28;19992;-61
2022/05/27 08:17:19;;;;;;;;;;;;;;;18.98;100.00;98277.00;5080394;28;19960;-61
2022/05/27 08:19:45;;;;;;;;;;;;;;;19.20;100.00;98277.00;5094370;28;19929;-61
2022/05/27 08:22:11;;;;;;;;;;;;;;;19.18;100.00;98273.00;5078685;28;19925;-61
2022/05/27 08:24:38;;;;;;;;;;;;;;;19.04;100.00;98275.78;5081876;28;20008;-61
2022/05/27 08:27:04;;;;;;;;;;;;;;;19.31;100.00;98275.63;5081813;28;19924;-61
2022/05/27 08:29:32;;;;;;;;;;;;;;;19.45;100.00;98274.78;5078858;28;19951;-61
2022/05/27 08:32:03;;;;;;;;;;;;;;;19.35;100.00;98273.91;5078951;28;19925;-61
2022/05/27 08:39:58;;;;;;;;;;;;;;;19.37;100.00;98263.53;5078778;28;19945;-60
2022/05/27 08:42:29;;;;;;;;;;;;;;;19.40;100.00;98271.06;5080395;28;19967;-60
2022/05/27 08:45:00;;;;;;;;;;;;;;;19.39;100.00;98274.91;5082210;28;19920;-60
2022/05/27 08:47:30;;;;;;;;;;;;;;;19.42;100.00;98272.69;5079478;28;19928;-59
2022/05/27 08:50:02;;;;;;;;;;;;;;;19.29;100.00;98272.44;5082679;28;19929;-60
2022/05/27 08:52:32;;;;;;;;;;;;;;;19.23;100.00;98268.25;5085247;28;19936;-61
2022/05/27 08:55:00;;;;;;;;;;;;;;;19.33;100.00;98272.63;5084818;28;19980;-60
2022/05/27 09:00:15;;;;;;;;;;;;;;;19.24;100.00;98269.88;5082576;28;19968;-61
2022/05/27 09:02:45;;;;;;;;;;;;;;;19.26;100.00;98264.13;5085787;28;19924;-60
2022/05/27 09:05:17;;;;;;;;;;;;;;;19.47;100.00;98248.16;5085405;28;19928;-61
2022/05/27 09:07:50;;;;;;;;;;;;;;;19.35;100.00;98254.13;5082481;28;19947;-61
2022/05/27 09:10:18;;;;;;;;;;;;;;;19.52;100.00;98256.97;5083421;28;19925;-61
2022/05/27 09:12:46;;;;;;;;;;;;;;;19.53;100.00;98245.00;5085502;28;19925;-61
2022/05/27 09:15:19;;;;;;;;;;;;;;;19.70;100.00;98245.09;5085313;28;19931;-60
2022/05/27 09:17:53;;;;;;;;;;;;;;;19.59;100.00;98251.09;5082155;28;19927;-61
2022/05/27 09:20:30;;;;;;;;;;;;;;;19.59;100.00;98254.59;5083530;28;19925;-61
2022/05/27 09:23:01;;;;;;;;;;;;;;;19.67;100.00;98239.50;5085720;28;19931;-61
2022/05/27 09:25:33;;;;;;;;;;;;;;;19.72;100.00;98250.16;5082754;28;19928;-61
2022/05/27 09:28:04;;;;;;;;;;;;;;;19.69;100.00;98259.72;5082051;28;20027;-60
2022/05/27 09:30:33;;;;;;;;;;;;;;;19.71;100.00;98254.78;5084563;28;19928;-61
2022/05/27 09:33:01;;;;;;;;;;;;;;;19.81;100.00;98251.00;5084171;28;20019;-60
2022/05/27 09:35:31;;;;;;;;;;;;;;;19.89;100.00;98258.38;5082724;28;20352;-61
2022/05/27 09:38:01;;;;;;;;;;;;;;;19.78;100.00;98238.06;5081653;28;19929;-60
2022/05/27 09:40:31;;;;;;;;;;;;;;;19.99;100.00;98247.25;5084035;28;20028;-60
2022/05/27 09:43:01;;;;;;;;;;;;;;;20.05;100.00;98237.84;5085064;28;19928;-60
2022/05/27 09:45:29;;;;;;;;;;;;;;;20.02;100.00;98240.38;5082608;28;19972;-61
2022/05/27 09:47:59;;;;;;;;;;;;;;;20.06;100.00;98235.91;5081629;28;20061;-61
2022/05/27 09:50:26;;;;;;;;;;;;;;;20.16;100.00;98222.84;5083559;28;19943;-61
2022/05/27 09:52:55;;;;;;;;;;;;;;;20.13;99.94;98236.25;5084619;28;19975;-60
2022/05/27 09:55:24;;;;;;;;;;;;;;;20.22;98.68;98221.59;5082648;28;19924;-60
2022/05/27 09:57:55;;;;;;;;;;;;;;;20.21;97.73;98227.34;5081198;28;19959;-61
2022/05/27 10:00:33;;;;;;;;;;;;;;;20.17;98.48;98224.47;5081854;28;19956;-61
2022/05/27 10:03:18;;;;;;;;;;;;;;;20.26;99.03;98214.44;5084388;28;20023;-61
2022/05/27 10:05:50;;;;;;;;;;;;;;;20.45;97.82;98206.81;5074557;28;19931;-61
2022/05/27 10:08:25;;;;;;;;;;;;;;;20.49;98.08;98209.66;5082138;28;19924;-61
2022/05/27 10:11:06;;;;;;;;;;;;;;;20.55;95.23;98210.31;5084528;28;19980;-61
2022/05/27 10:13:34;;;;;;;;;;;;;;;20.65;96.42;98196.38;5081221;28;19947;-59
2022/05/27 10:16:03;;;;;;;;;;;;;;;20.58;96.04;98209.66;5080815;28;19928;-60
2022/05/27 10:18:31;;;;;;;;;;;;;;;20.78;94.84;98198.13;5083510;28;20107;-60
2022/05/27 10:21:00;;;;;;;;;;;;;;;20.85;93.42;98198.44;5084128;28;19991;-60
2022/05/27 10:23:28;;;;;;;;;;;;;;;20.89;94.65;98194.75;5081597;28;19947;-60
2022/05/27 10:25:55;;;;;;;;;;;;;;;21.02;93.98;98201.91;5081031;28;19925;-61
2022/05/27 10:28:27;;;;;;;;;;;;;;;21.03;92.99;98205.44;5082449;28;19972;-61
2022/05/27 10:30:54;;;;;;;;;;;;;;;20.93;92.39;98206.56;5084352;28;19924;-60
2022/05/27 10:33:22;;;;;;;;;;;;;;;20.83;92.99;98206.91;5082607;28;19960;-60
2022/05/27 10:35:52;;;;;;;;;;;;;;;20.82;93.35;98196.38;5080590;28;19924;-60
2022/05/27 10:38:25;;;;;;;;;;;;;;;20.84;92.06;98191.41;5081445;28;19992;-60
2022/05/27 10:40:55;;;;;;;;;;;;;;;20.79;91.85;98184.25;5083950;28;19960;-61
2022/05/27 10:43:34;;;;;;;;;;;;;;;20.79;93.32;98188.88;5082158;28;19952;-61
2022/05/27 10:46:04;;;;;;;;;;;;;;;20.84;92.74;98180.56;5080310;28;19924;-61
2022/05/27 10:48:48;;;;;;;;;;;;;;;20.92;92.11;98179.75;5083125;28;19936;-60
2022/05/27 10:51:21;;;;;;;;;;;;;;;20.99;91.14;98169.19;5082776;28;20475;-59
2022/05/27 10:53:53;;;;;;;;;;;;;;;21.15;90.64;98174.91;5079919;28;19967;-59
2022/05/27 10:56:27;;;;;;;;;;;;;;;21.13;90.71;98171.72;5080801;28;19989;-60
2022/05/27 11:02:07;;;;;;;;;;;;;;;21.37;88.84;98172.75;5073138;28;20023;-61
2022/05/27 11:04:50;;;;;;;;;;;;;;;21.25;90.04;98172.63;5082976;28;20015;-61
2022/05/27 11:07:27;;;;;;;;;;;;;;;21.36;90.23;98176.56;5081965;28;19960;-61
2022/05/27 11:10:02;;;;;;;;;;;;;;;21.30;89.96;98180.59;5079650;28;19943;-61
2022/05/27 11:15:24;;;;;;;;;;;;;;;21.13;91.52;98169.81;5082042;28;19959;-62
2022/05/27 11:17:59;;;;;;;;;;;;;;;21.17;91.97;98165.31;5079558;28;19966;-61
2022/05/27 11:20:41;;;;;;;;;;;;;;;21.01;91.78;98165.00;5080979;28;21331;-60
2022/05/27 11:23:15;;;;;;;;;;;;;;;21.08;91.89;98166.44;5081646;28;19924;-60
2022/05/27 11:25:49;;;;;;;;;;;;;;;21.23;90.14;98155.84;5071766;28;19964;-60
2022/05/27 11:28:33;;;;;;;;;;;;;;;21.23;91.82;98153.13;5079949;28;19921;-60
2022/05/27 11:31:07;;;;;;;;;;;;;;;21.25;91.66;98141.97;5072438;28;19962;-60
2022/05/27 11:33:38;;;;;;;;;;;;;;;21.33;90.16;98138.41;5079445;28;19932;-61
2022/05/27 11:36:14;;;;;;;;;;;;;;;21.45;88.27;98147.44;5079438;28;19929;-60
2022/05/27 11:38:58;;;;;;;;;;;;;;;21.27;88.83;98145.13;5071806;28;19986;-60
2022/05/27 11:41:28;;;;;;;;;;;;;;;21.33;86.42;98149.25;5081028;28;19988;-60
2022/05/27 11:44:01;;;;;;;;;;;;;;;21.27;87.40;98142.41;5081417;28;19925;-60
2022/05/27 11:46:44;;;;;;;;;;;;;;;21.33;86.89;98136.47;5081626;28;19968;-60
2022/05/27 11:49:28;;;;;;;;;;;;;;;21.28;88.42;98154.88;5082684;28;19956;-61
2022/05/27 11:52:02;;;;;;;;;;;;;;;21.34;88.45;98148.94;5079169;28;19925;-61
2022/05/27 11:54:51;;;;;;;;;;;;;;;21.34;87.10;98146.22;5081692;28;19925;-60
2022/05/27 11:57:26;;;;;;;;;;;;;;;21.23;87.07;98141.50;5081347;28;20042;-60
2022/05/27 11:59:55;;;;;;;;;;;;;;;21.30;87.00;98139.84;5079017;28;19948;-60
2022/05/27 12:02:28;;;;;;;;;;;;;;;21.42;86.87;98139.16;5080312;28;19960;-61
2022/05/27 12:04:56;;;;;;;;;;;;;;;21.37;87.55;98136.63;5082060;28;19995;-60
2022/05/27 12:07:27;;;;;;;;;;;;;;;21.47;85.54;98134.34;5080433;28;19975;-61
2022/05/27 12:09:58;;;;;;;;;;;;;;;21.47;86.77;98150.66;5079016;28;19932;-61
2022/05/27 12:12:28;;;;;;;;;;;;;;;21.49;86.86;98134.00;5080479;28;19932;-61
2022/05/27 12:14:56;;;;;;;;;;;;;;;21.53;86.93;98124.88;5082278;28;19928;-61
2022/05/27 12:17:25;;;;;;;;;;;;;;;21.67;87.00;98126.53;5079299;28;19929;-60
2022/05/27 12:19:57;;;;;;;;;;;;;;;21.63;85.74;98131.84;5078816;28;19988;-61
2022/05/27 12:22:25;;;;;;;;;;;;;;;21.67;86.28;98127.34;5079858;28;19991;-61
2022/05/27 12:24:54;;;;;;;;;;;;;;;21.61;86.66;98127.84;5081968;28;19983;-60
2022/05/27 12:27:22;;;;;;;;;;;;;;;21.63;87.29;98126.41;5080442;28;19932;-63
2022/05/27 12:29:50;;;;;;;;;;;;;;;21.71;85.87;98122.84;5078549;28;19964;-60
2022/05/27 12:32:18;;;;;;;;;;;;;;;21.69;87.08;98114.22;5078160;28;19960;-61
2022/05/27 12:34:45;;;;;;;;;;;;;;;21.86;85.46;98114.09;5081941;28;19925;-60
2022/05/27 12:37:17;;;;;;;;;;;;;;;21.65;88.28;98107.06;5081501;28;19924;-62
2022/05/27 12:39:44;;;;;;;;;;;;;;;21.80;87.28;98114.63;5077493;28;19924;-60
2022/05/27 12:42:11;;;;;;;;;;;;;;;21.79;83.76;98124.69;5078098;28;19931;-61
2022/05/27 12:44:40;;;;;;;;;;;;;;;21.63;85.41;98125.63;5070298;28;19984;-61
2022/05/27 12:47:16;;;;;;;;;;;;;;;21.71;85.20;98119.31;5078057;28;19966;-60
2022/05/27 12:49:44;;;;;;;;;;;;;;;21.71;84.06;98125.56;5070700;28;20337;-61
2022/05/27 12:52:42;;;;;;;;;;;;;;;21.71;85.56;98120.13;5077325;28;19984;-61
2022/05/27 12:55:12;;;;;;;;;;;;;;;21.74;84.63;98110.50;5080838;28;19924;-61
2022/05/27 13:00:59;;;;;;;;;;;;;;;21.74;84.27;98094.19;5070592;28;19925;-62
2022/05/27 13:03:48;;;;;;;;;;;;;;;21.96;82.72;98096.63;5079402;28;19921;-61
2022/05/27 13:06:17;;;;;;;;;;;;;;;22.02;84.02;98098.81;5080409;28;19955;-61
2022/05/27 13:08:46;;;;;;;;;;;;;;;21.93;82.91;98111.69;5077767;28;19956;-61
2022/05/27 13:11:15;;;;;;;;;;;;;;;21.78;85.64;98097.84;5077581;28;19929;-61
2022/05/27 13:13:41;;;;;;;;;;;;;;;21.80;84.36;98103.75;5081040;28;20011;-61
2022/05/27 13:16:11;;;;;;;;;;;;;;;21.78;85.03;98106.00;5077291;28;19951;-61
2022/05/27 13:18:49;;;;;;;;;;;;;;;21.83;84.41;98098.44;5069262;28;19975;-61
2022/05/27 13:21:20;;;;;;;;;;;;;;;21.80;84.44;98092.88;5078343;28;20043;-61
2022/05/27 13:23:51;;;;;;;;;;;;;;;21.82;85.11;98090.59;5081193;28;19929;-61